Time;durP1;ratioP1;P1;durP2;ratioP2;P2;SDS_P1;SDS_P2;PMS_P1;PMS_P2;Temp;Humidity;BMP_temperature;BMP_pressure;BME280_temperature;BME280_humidity;BME280_pressure;Samples;Min_cycle;Max_cycle;Signal;HPM_P1;HPM_P2
2022/08/24 00:00:30;;;;;;;1.17;0.70;;;12.30;80.50;;;;;;4993716;28;20388;-78
2022/08/24 00:02:57;;;;;;;1.35;0.73;;;12.40;81.80;;;;;;4993709;28;20463;-77
2022/08/24 00:05:24;;;;;;;1.63;0.63;;;12.50;78.70;;;;;;4993441;28;20451;-74
2022/08/24 00:07:51;;;;;;;2.05;0.70;;;12.50;80.40;;;;;;4993727;28;20377;-74
2022/08/24 00:10:20;;;;;;;1.57;0.87;;;12.50;79.80;;;;;;4993516;28;20385;-78
2022/08/24 00:12:48;;;;;;;2.05;0.95;;;12.60;79.60;;;;;;4988162;28;20716;-75
2022/08/24 00:15:16;;;;;;;7.75;1.10;;;12.60;77.10;;;;;;4985064;28;20409;-79
2022/08/24 00:17:43;;;;;;;4.53;0.82;;;12.70;76.50;;;;;;4993344;28;20392;-79
2022/08/24 00:20:12;;;;;;;1.90;0.70;;;12.80;76.20;;;;;;4992958;28;20420;-80
2022/08/24 00:22:39;;;;;;;1.20;0.65;;;12.80;76.10;;;;;;4993281;28;20384;-80
2022/08/24 00:25:08;;;;;;;1.52;0.63;;;12.80;75.40;;;;;;4993410;28;20393;-76
2022/08/24 00:27:41;;;;;;;1.05;0.70;;;12.70;73.50;;;;;;4993317;28;20431;-79
2022/08/24 00:30:14;;;;;;;1.45;0.80;;;12.80;73.30;;;;;;4993261;28;20385;-78
2022/08/24 00:32:43;;;;;;;5.10;1.00;;;12.80;73.60;;;;;;4992689;28;20392;-76
2022/08/24 00:35:11;;;;;;;2.03;0.70;;;12.80;74.40;;;;;;4992828;28;20476;-76
2022/08/24 00:37:39;;;;;;;0.98;0.60;;;12.90;74.30;;;;;;4992983;28;20421;-76
2022/08/24 00:40:13;;;;;;;1.17;0.60;;;13.00;72.60;;;;;;4992948;28;20431;-76
2022/08/24 00:42:40;;;;;;;1.20;0.60;;;12.80;72.90;;;;;;4992934;28;20431;-78
2022/08/24 00:45:11;;;;;;;1.85;0.90;;;12.90;72.90;;;;;;4992424;28;20380;-75
2022/08/24 00:47:58;;;;;;;1.77;0.70;;;13.00;72.90;;;;;;4992989;28;20387;-78
2022/08/24 00:50:38;;;;;;;3.03;0.85;;;13.00;72.70;;;;;;4991659;28;20766;-76
2022/08/24 00:53:10;;;;;;;3.28;0.73;;;13.10;76.50;;;;;;4992742;28;20853;-75
2022/08/24 00:55:50;;;;;;;1.90;0.70;;;13.30;74.60;;;;;;4992521;28;20413;-75
2022/08/24 00:58:25;;;;;;;1.80;0.80;;;13.30;70.20;;;;;;4992644;28;20373;-76
2022/08/24 01:01:01;;;;;;;2.13;0.82;;;13.40;71.10;;;;;;4992248;28;20376;-74
2022/08/24 01:03:31;;;;;;;1.15;0.70;;;13.30;70.10;;;;;;4992658;28;20405;-76
2022/08/24 01:05:58;;;;;;;1.42;0.70;;;13.40;72.90;;;;;;4973760;28;20417;-74
2022/08/24 01:08:25;;;;;;;1.80;0.60;;;13.40;72.10;;;;;;4992426;28;20468;-75
2022/08/24 01:10:59;;;;;;;0.85;0.60;;;13.50;70.80;;;;;;4992249;28;20384;-77
2022/08/24 01:13:28;;;;;;;1.20;0.70;;;13.50;69.20;;;;;;4981858;28;20370;-77
2022/08/24 01:16:00;;;;;;;1.52;0.70;;;13.50;69.20;;;;;;4989065;28;20500;-77
2022/08/24 01:21:30;;;;;;;1.50;0.77;;;13.60;69.70;;;;;;4992366;28;20454;-76
2022/08/24 01:24:10;;;;;;;1.50;0.70;;;13.70;70.30;;;;;;4992221;28;20384;-75
2022/08/24 01:26:47;;;;;;;1.10;0.60;;;14.00;69.70;;;;;;4979764;28;20367;-77
2022/08/24 01:29:30;;;;;;;1.02;0.70;;;14.50;68.80;;;;;;4992069;28;20396;-75
2022/08/24 01:31:58;;;;;;;1.15;0.63;;;15.20;66.60;;;;;;4992425;28;20381;-76
2022/08/24 01:34:26;;;;;;;2.83;0.88;;;15.90;66.90;;;;;;4993238;28;20393;-76
2022/08/24 01:36:59;;;;;;;1.00;0.63;;;16.40;65.30;;;;;;4998460;28;20388;-77
2022/08/24 01:39:54;;;;;;;1.67;0.70;;;16.50;61.40;;;;;;4993964;28;20443;-78
2022/08/24 01:42:21;;;;;;;1.10;0.60;;;16.30;62.90;;;;;;5001062;28;20389;-77
2022/08/24 01:44:49;;;;;;;2.10;0.60;;;16.20;61.80;;;;;;4982585;28;20389;-77
2022/08/24 01:47:17;;;;;;;1.27;0.70;;;16.30;61.80;;;;;;5004356;28;20412;-78
2022/08/24 01:49:48;;;;;;;1.02;0.80;;;16.30;60.60;;;;;;4993400;28;20391;-73
2022/08/24 01:52:20;;;;;;;1.47;0.60;;;16.40;60.60;;;;;;4992223;28;20385;-75
2022/08/24 01:54:48;;;;;;;1.20;0.70;;;16.40;60.70;;;;;;4992098;28;20404;-78
2022/08/24 01:57:16;;;;;;;1.50;0.70;;;16.40;59.80;;;;;;4991816;28;20439;-77
2022/08/24 01:59:43;;;;;;;1.52;0.70;;;16.80;60.90;;;;;;4991577;28;20435;-80
2022/08/24 02:02:24;;;;;;;1.13;0.60;;;16.60;60.60;;;;;;4990839;28;20741;-80
2022/08/24 02:04:52;;;;;;;1.60;0.70;;;17.20;58.10;;;;;;4991660;28;20409;-78
2022/08/24 02:07:19;;;;;;;1.40;0.70;;;17.30;58.20;;;;;;4991557;28;20373;-77
2022/08/24 02:09:47;;;;;;;1.00;0.65;;;17.60;58.60;;;;;;4991557;28;20435;-75
2022/08/24 02:12:14;;;;;;;2.95;0.77;;;17.90;56.90;;;;;;4990441;28;20397;-78
2022/08/24 02:14:41;;;;;;;1.88;0.70;;;17.40;57.40;;;;;;4978479;28;20407;-78
2022/08/24 02:17:09;;;;;;;1.80;0.80;;;17.40;57.10;;;;;;4988158;28;20393;-79
2022/08/24 02:19:36;;;;;;;1.77;0.70;;;16.90;57.50;;;;;;4991198;28;20373;-74
2022/08/24 02:22:04;;;;;;;3.63;0.70;;;16.80;58.00;;;;;;4991015;28;20381;-78
2022/08/24 02:24:33;;;;;;;2.00;0.70;;;16.80;56.60;;;;;;4991333;28;20377;-77
2022/08/24 02:27:01;;;;;;;2.55;0.90;;;16.70;57.80;;;;;;4991038;28;20388;-74
2022/08/24 02:29:30;;;;;;;4.85;0.85;;;16.80;59.50;;;;;;4990986;28;20376;-74
2022/08/24 02:31:57;;;;;;;2.97;0.80;;;17.80;58.60;;;;;;4990911;28;20855;-77
2022/08/24 02:34:25;;;;;;;1.52;0.60;;;18.50;56.70;;;;;;4991011;28;20837;-78
2022/08/24 02:36:52;;;;;;;1.80;0.60;;;19.10;54.70;;;;;;4991107;28;20393;-77
2022/08/24 02:39:19;;;;;;;1.52;0.68;;;19.30;53.90;;;;;;4991221;28;20899;-79
2022/08/24 02:41:47;;;;;;;2.92;0.70;;;18.70;54.90;;;;;;4990665;28;20384;-77
2022/08/24 02:44:14;;;;;;;1.08;0.60;;;18.90;53.70;;;;;;4991186;28;20880;-75
2022/08/24 02:46:42;;;;;;;1.35;0.60;;;19.20;51.90;;;;;;4990777;28;20420;-76
2022/08/24 02:49:09;;;;;;;0.73;0.57;;;19.00;51.70;;;;;;4991031;28;20381;-76
2022/08/24 02:51:37;;;;;;;1.80;0.70;;;18.90;51.60;;;;;;4990734;28;21199;-73
2022/08/24 02:54:04;;;;;;;2.88;0.60;;;18.90;52.50;;;;;;4990858;28;20416;-76
2022/08/24 02:56:33;;;;;;;1.98;0.70;;;19.20;52.60;;;;;;4990619;28;20919;-74
2022/08/24 02:59:01;;;;;;;1.00;0.60;;;19.60;50.90;;;;;;4990908;28;20380;-78
2022/08/24 03:01:28;;;;;;;1.75;0.70;;;20.20;50.60;;;;;;4990452;28;20415;-74
2022/08/24 03:03:56;;;;;;;1.65;0.60;;;20.20;49.70;;;;;;4990952;28;20422;-78
2022/08/24 03:06:23;;;;;;;1.60;0.60;;;19.50;49.60;;;;;;4990577;28;20954;-76
2022/08/24 03:08:51;;;;;;;2.25;0.70;;;19.50;50.70;;;;;;4990502;28;20873;-77
2022/08/24 03:11:18;;;;;;;2.00;0.60;;;19.70;51.20;;;;;;4990744;28;20768;-75
2022/08/24 03:13:45;;;;;;;4.00;0.70;;;20.20;50.00;;;;;;4979313;28;20861;-79
2022/08/24 03:16:12;;;;;;;2.00;0.60;;;20.00;49.80;;;;;;4993696;28;20519;-74
2022/08/24 03:18:39;;;;;;;1.10;0.70;;;20.10;48.60;;;;;;4994490;28;20419;-77
2022/08/24 03:21:08;;;;;;;3.53;0.80;;;20.40;48.70;;;;;;4994169;28;20391;-75
2022/08/24 03:23:35;;;;;;;2.63;0.63;;;20.50;49.60;;;;;;4994483;28;20387;-74
2022/08/24 03:26:02;;;;;;;5.07;0.82;;;20.80;48.60;;;;;;4994027;28;20393;-74
2022/08/24 03:28:30;;;;;;;1.98;0.60;;;20.80;48.30;;;;;;4994330;28;20384;-74
2022/08/24 03:30:57;;;;;;;1.92;0.70;;;20.30;47.60;;;;;;4993857;28;20744;-76
2022/08/24 03:33:24;;;;;;;0.90;0.43;;;20.20;48.80;;;;;;4994206;28;20388;-74
2022/08/24 03:35:52;;;;;;;2.00;0.60;;;20.30;47.40;;;;;;4993985;28;20420;-74
2022/08/24 03:38:20;;;;;;;1.90;0.60;;;20.60;47.50;;;;;;4993768;28;20384;-77
2022/08/24 03:40:47;;;;;;;1.52;0.50;;;21.00;47.20;;;;;;4990971;28;20400;-76
2022/08/24 03:46:01;;;;;;;1.23;0.60;;;20.80;45.50;;;;;;4994070;28;20380;-75
2022/08/24 03:48:30;;;;;;;3.35;0.60;;;21.10;46.80;;;;;;4993478;28;20384;-74
2022/08/24 03:50:57;;;;;;;7.80;0.80;;;21.00;46.20;;;;;;4993801;28;20381;-74
2022/08/24 03:53:24;;;;;;;7.43;0.90;;;21.20;45.80;;;;;;4976155;28;20377;-75
2022/08/24 03:55:51;;;;;;;0.75;0.40;;;21.10;47.40;;;;;;4993751;28;20405;-76
2022/08/24 03:58:19;;;;;;;0.85;0.47;;;20.90;46.20;;;;;;4993309;28;20468;-76
2022/08/24 04:00:46;;;;;;;3.50;0.80;;;20.80;46.00;;;;;;4993364;28;20393;-75
2022/08/24 04:03:14;;;;;;;2.00;0.60;;;21.10;45.20;;;;;;4993391;28;20508;-76
2022/08/24 04:05:42;;;;;;;5.28;0.95;;;21.10;44.50;;;;;;4993496;28;20931;-77
2022/08/24 04:08:10;;;;;;;9.57;1.30;;;20.90;44.00;;;;;;4993403;28;20392;-75
2022/08/24 04:10:42;;;;;;;2.40;0.70;;;21.30;44.70;;;;;;4993220;28;20388;-77
2022/08/24 04:13:10;;;;;;;1.80;0.52;;;22.10;44.40;;;;;;4985298;28;20951;-75
2022/08/24 04:15:40;;;;;;;2.20;0.50;;;21.80;43.50;;;;;;4987777;28;20478;-75
2022/08/24 04:18:10;;;;;;;1.20;0.52;;;21.70;43.50;;;;;;4993273;28;20384;-75
2022/08/24 04:20:42;;;;;;;0.90;0.50;;;21.90;43.70;;;;;;4993235;28;20395;-75
2022/08/24 04:23:11;;;;;;;3.42;0.70;;;21.50;43.00;;;;;;4980293;28;20460;-79
2022/08/24 04:25:43;;;;;;;1.73;0.40;;;21.20;44.40;;;;;;4993041;28;20400;-74
2022/08/24 04:28:11;;;;;;;1.00;0.32;;;21.20;44.00;;;;;;4992872;28;20384;-77
2022/08/24 04:30:44;;;;;;;0.57;0.47;;;20.90;43.30;;;;;;4993249;28;20468;-75
2022/08/24 04:33:13;;;;;;;1.27;0.45;;;20.90;44.90;;;;;;4992828;28;20365;-80
2022/08/24 04:35:42;;;;;;;0.40;0.30;;;21.00;44.50;;;;;;4992907;28;20972;-75
2022/08/24 04:38:09;;;;;;;2.50;0.50;;;21.50;42.50;;;;;;4992918;28;20956;-79
2022/08/24 04:40:39;;;;;;;0.90;0.40;;;21.60;42.70;;;;;;4992835;28;20896;-78
2022/08/24 04:43:07;;;;;;;0.50;0.40;;;21.40;43.70;;;;;;4993647;28;20456;-75
2022/08/24 04:45:39;;;;;;;0.47;0.40;;;21.30;43.80;;;;;;4995029;28;20389;-79
2022/08/24 04:48:06;;;;;;;1.98;0.55;;;21.40;43.20;;;;;;4998542;28;20899;-76
2022/08/24 04:50:38;;;;;;;2.00;0.75;;;21.50;42.60;;;;;;4996938;28;20381;-78
2022/08/24 04:53:06;;;;;;;3.85;0.60;;;21.50;42.30;;;;;;4993299;28;20396;-75
2022/08/24 04:55:40;;;;;;;0.50;0.40;;;21.90;42.30;;;;;;4992719;28;20876;-76
2022/08/24 04:58:07;;;;;;;1.50;0.47;;;21.80;42.30;;;;;;4992724;28;20429;-77
2022/08/24 05:00:34;;;;;;;0.73;0.30;;;21.60;41.80;;;;;;4992449;28;20407;-79
2022/08/24 05:03:02;;;;;;;3.58;0.65;;;21.90;43.10;;;;;;4992609;28;20432;-77
2022/08/24 05:05:29;;;;;;;1.13;0.43;;;21.80;42.40;;;;;;4992128;28;20406;-75
2022/08/24 05:07:56;;;;;;;0.40;0.40;;;21.60;44.40;;;;;;4992251;28;20392;-79
2022/08/24 05:10:24;;;;;;;2.03;0.50;;;21.20;43.60;;;;;;4992499;28;20377;-81
2022/08/24 05:12:51;;;;;;;0.43;0.32;;;21.10;43.70;;;;;;4989320;28;20398;-74
2022/08/24 05:15:18;;;;;;;1.58;0.40;;;21.50;43.20;;;;;;4992391;28;20412;-75
2022/08/24 05:17:45;;;;;;;1.10;0.40;;;21.40;43.30;;;;;;4992351;28;20385;-80
2022/08/24 05:20:12;;;;;;;1.20;0.55;;;21.10;44.90;;;;;;4991952;28;20480;-77
2022/08/24 05:22:39;;;;;;;0.60;0.40;;;21.10;44.60;;;;;;4991749;28;20495;-77
2022/08/24 05:25:07;;;;;;;0.60;0.40;;;21.00;43.90;;;;;;4992139;28;20785;-75
2022/08/24 05:27:35;;;;;;;0.73;0.43;;;21.30;44.10;;;;;;4991854;28;20397;-76
2022/08/24 05:30:02;;;;;;;0.40;0.40;;;21.20;44.30;;;;;;4988066;28;20400;-76
2022/08/24 05:32:29;;;;;;;0.70;0.40;;;21.30;44.00;;;;;;4981898;28;20429;-77
2022/08/24 05:34:58;;;;;;;0.70;0.40;;;21.50;44.10;;;;;;4991429;28;21093;-76
2022/08/24 05:37:26;;;;;;;0.83;0.40;;;22.00;44.00;;;;;;4990396;28;20397;-79
2022/08/24 05:39:53;;;;;;;0.70;0.40;;;21.70;44.50;;;;;;4991704;28;20800;-77
2022/08/24 05:42:20;;;;;;;1.00;0.50;;;21.50;44.30;;;;;;4991710;28;20836;-76
2022/08/24 05:44:47;;;;;;;0.60;0.30;;;20.80;43.60;;;;;;4991042;28;20435;-75
2022/08/24 05:47:14;;;;;;;1.73;0.70;;;19.90;44.80;;;;;;4991424;28;21001;-79
2022/08/24 05:49:42;;;;;;;1.10;0.40;;;19.30;47.30;;;;;;4991225;28;20387;-79
2022/08/24 05:52:09;;;;;;;13.18;11.75;;;18.80;46.60;;;;;;4990941;28;20408;-76
2022/08/24 05:54:36;;;;;;;2.38;2.05;;;18.20;49.10;;;;;;4991104;28;20385;-82
2022/08/24 05:57:05;;;;;;;6.75;5.35;;;17.80;49.40;;;;;;4991083;28;20380;-77
2022/08/24 05:59:32;;;;;;;3.28;1.30;;;17.70;49.80;;;;;;4990972;28;20439;-77
2022/08/24 06:01:59;;;;;;;0.70;0.50;;;17.60;50.80;;;;;;4991361;28;20385;-79
2022/08/24 06:04:27;;;;;;;1.23;0.50;;;17.40;50.00;;;;;;4990796;28;20396;-76
2022/08/24 06:06:55;;;;;;;1.13;0.53;;;17.10;50.80;;;;;;4990920;28;20401;-78
2022/08/24 06:09:22;;;;;;;0.55;0.55;;;16.90;51.80;;;;;;4991272;28;20420;-76
2022/08/24 06:11:49;;;;;;;0.75;0.50;;;16.80;52.40;;;;;;4991108;28;20388;-76
2022/08/24 06:14:18;;;;;;;1.13;0.50;;;16.70;52.10;;;;;;4973187;28;20385;-76
2022/08/24 06:16:47;;;;;;;1.40;0.50;;;16.70;52.20;;;;;;4990698;28;20496;-81
2022/08/24 06:19:16;;;;;;;0.88;0.40;;;17.10;52.20;;;;;;4990952;28;20451;-76
2022/08/24 06:21:46;;;;;;;0.40;0.40;;;17.30;50.90;;;;;;4991258;28;20490;-77
2022/08/24 06:24:14;;;;;;;0.50;0.40;;;17.30;50.70;;;;;;4991020;28;20429;-77
2022/08/24 06:29:32;;;;;;;1.80;0.65;;;16.90;52.30;;;;;;4991310;28;20447;-77
2022/08/24 06:31:59;;;;;;;1.23;0.67;;;16.60;52.40;;;;;;4990912;28;20483;-75
2022/08/24 06:34:27;;;;;;;1.85;1.30;;;16.60;52.90;;;;;;4990681;28;20410;-76
2022/08/24 06:36:54;;;;;;;0.80;0.80;;;16.40;53.10;;;;;;4991252;28;20746;-77
2022/08/24 06:39:21;;;;;;;1.02;0.80;;;16.40;53.60;;;;;;4991067;28;20376;-75
2022/08/24 06:41:48;;;;;;;0.90;0.63;;;16.40;53.50;;;;;;4960032;28;20765;-80
2022/08/24 06:44:15;;;;;;;1.40;0.88;;;16.30;54.00;;;;;;4990822;28;20416;-80
2022/08/24 06:46:42;;;;;;;2.53;1.00;;;16.20;53.20;;;;;;4990725;28;20468;-75
2022/08/24 06:49:09;;;;;;;2.10;1.20;;;16.20;54.00;;;;;;4994883;28;20381;-75
2022/08/24 06:51:36;;;;;;;1.55;1.20;;;16.20;53.30;;;;;;4994790;28;20390;-77
2022/08/24 06:54:04;;;;;;;2.03;0.88;;;16.20;53.10;;;;;;4994730;28;21190;-76
2022/08/24 06:56:31;;;;;;;3.00;1.55;;;16.10;53.40;;;;;;4994679;28;20412;-76
2022/08/24 06:59:02;;;;;;;1.77;1.10;;;16.00;54.70;;;;;;4994918;28;20377;-76
2022/08/24 07:01:30;;;;;;;1.35;0.63;;;15.90;54.20;;;;;;4994788;28;20472;-77
2022/08/24 07:03:57;;;;;;;1.53;0.50;;;15.80;54.30;;;;;;4994850;28;20381;-75
2022/08/24 07:06:25;;;;;;;0.45;0.43;;;15.70;54.70;;;;;;4994514;28;20415;-80
2022/08/24 07:08:55;;;;;;;1.33;0.40;;;15.60;54.90;;;;;;4994515;28;20396;-77
2022/08/24 07:11:24;;;;;;;1.23;0.70;;;15.50;55.80;;;;;;4994925;28;20420;-81
2022/08/24 07:13:51;;;;;;;1.52;0.70;;;15.40;56.20;;;;;;4981343;28;20735;-78
2022/08/24 07:16:20;;;;;;;1.65;0.60;;;15.30;56.40;;;;;;4981176;28;20404;-77
2022/08/24 07:18:47;;;;;;;0.93;0.50;;;15.20;56.50;;;;;;4994813;28;20872;-76
2022/08/24 07:21:18;;;;;;;3.17;0.60;;;15.10;57.90;;;;;;4994117;28;20475;-79
2022/08/24 07:23:45;;;;;;;1.25;0.57;;;15.00;57.10;;;;;;4994605;28;20380;-82
2022/08/24 07:26:18;;;;;;;2.93;0.50;;;14.90;58.00;;;;;;4994439;28;20777;-77
2022/08/24 07:28:45;;;;;;;1.30;0.60;;;14.70;58.90;;;;;;4994248;28;20373;-78
2022/08/24 07:31:12;;;;;;;3.50;0.77;;;14.40;59.80;;;;;;4993696;28;20481;-76
2022/08/24 07:33:40;;;;;;;3.03;0.60;;;14.20;60.70;;;;;;4994402;28;20369;-75
2022/08/24 07:36:08;;;;;;;1.23;0.65;;;14.00;61.30;;;;;;4994051;28;20523;-79
2022/08/24 07:38:35;;;;;;;0.90;0.60;;;13.90;62.10;;;;;;4991706;28;20523;-76
2022/08/24 07:41:02;;;;;;;0.80;0.57;;;13.70;63.10;;;;;;4994081;28;20400;-75
2022/08/24 07:43:29;;;;;;;1.70;1.10;;;13.60;63.60;;;;;;4994572;28;20377;-75
2022/08/24 07:45:57;;;;;;;1.73;1.02;;;13.50;64.10;;;;;;4996554;28;20412;-75
2022/08/24 07:48:25;;;;;;;2.17;0.90;;;13.30;65.20;;;;;;4998998;28;20381;-82
2022/08/24 07:50:52;;;;;;;2.30;0.98;;;13.20;66.00;;;;;;4994390;28;20578;-76
2022/08/24 07:53:19;;;;;;;2.00;0.83;;;13.10;66.10;;;;;;4967178;28;20395;-80
2022/08/24 07:55:55;;;;;;;3.20;1.00;;;12.90;67.50;;;;;;4994175;28;20412;-80
2022/08/24 07:58:23;;;;;;;3.95;1.30;;;12.90;68.10;;;;;;4989017;28;20404;-76
2022/08/24 08:00:50;;;;;;;2.92;0.80;;;12.80;69.70;;;;;;4992682;28;20420;-77
2022/08/24 08:03:18;;;;;;;2.15;0.73;;;12.90;67.50;;;;;;4980938;28;20397;-79
2022/08/24 08:05:45;;;;;;;1.33;0.90;;;13.00;67.80;;;;;;4985768;28;20557;-78
2022/08/24 08:08:12;;;;;;;2.53;1.02;;;12.90;67.90;;;;;;4993816;28;20504;-77
2022/08/24 08:10:39;;;;;;;6.90;1.10;;;13.00;68.00;;;;;;4988088;28;20436;-81
2022/08/24 08:13:07;;;;;;;2.70;1.00;;;12.90;67.80;;;;;;4991165;28;20388;-75
2022/08/24 08:15:34;;;;;;;2.50;1.75;;;12.90;68.30;;;;;;4993377;28;20488;-83
2022/08/24 08:18:01;;;;;;;2.65;1.85;;;12.80;69.10;;;;;;4980264;28;20380;-75
2022/08/24 08:20:29;;;;;;;2.20;1.60;;;12.70;68.80;;;;;;4992785;28;20389;-76
2022/08/24 08:25:41;;;;;;;1.58;0.90;;;12.60;69.50;;;;;;4992666;28;20539;-75
2022/08/24 08:28:08;;;;;;;2.30;1.15;;;12.60;69.70;;;;;;4993258;28;20423;-76
2022/08/24 08:30:35;;;;;;;1.48;0.85;;;12.60;69.80;;;;;;4992911;28;20542;-79
2022/08/24 08:33:03;;;;;;;2.28;0.70;;;12.70;69.80;;;;;;4992924;28;20488;-80
2022/08/24 08:35:32;;;;;;;2.10;0.90;;;12.60;70.50;;;;;;4993012;28;20824;-77
2022/08/24 08:38:00;;;;;;;1.80;0.80;;;12.50;71.60;;;;;;4991565;28;20400;-79
2022/08/24 08:40:45;;;;;;;1.55;1.00;;;12.40;72.00;;;;;;4992452;28;21241;-78
2022/08/24 08:43:31;;;;;;;1.70;1.00;;;12.20;72.60;;;;;;4992355;28;20393;-77
2022/08/24 08:46:12;;;;;;;1.80;0.90;;;12.10;73.50;;;;;;4993081;28;20520;-76
2022/08/24 08:48:59;;;;;;;1.55;1.10;;;12.00;74.10;;;;;;4992303;28;20464;-84
2022/08/24 08:51:51;;;;;;;2.65;1.10;;;12.00;74.50;;;;;;4992466;28;20432;-84
2022/08/24 08:54:41;;;;;;;2.00;1.10;;;11.90;75.50;;;;;;4993106;28;20423;-76
2022/08/24 08:57:22;;;;;;;2.80;1.17;;;11.70;76.20;;;;;;4990877;28;20904;-79
2022/08/24 09:00:03;;;;;;;1.60;1.05;;;11.70;77.00;;;;;;4992286;28;20389;-86
2022/08/24 09:03:01;;;;;;;2.23;1.00;;;11.70;77.50;;;;;;4993882;28;20418;-86
2022/08/24 09:05:37;;;;;;;2.60;1.10;;;11.70;78.00;;;;;;4993497;28;21018;-83
2022/08/24 09:08:13;;;;;;;1.27;0.98;;;11.80;78.20;;;;;;4992832;28;20415;-83
2022/08/24 09:11:05;;;;;;;2.75;0.90;;;11.70;79.20;;;;;;4995906;28;20377;-77
2022/08/24 09:13:44;;;;;;;1.80;1.00;;;11.70;79.60;;;;;;4983130;28;20398;-83
2022/08/24 09:16:30;;;;;;;1.70;1.00;;;11.50;80.90;;;;;;4992282;28;20404;-80
2022/08/24 09:19:44;;;;;;;2.65;1.52;;;11.40;82.00;;;;;;4992954;28;20861;-79
2022/08/24 09:22:17;;;;;;;1.83;1.60;;;11.30;83.20;;;;;;4985488;28;20393;-79
2022/08/24 09:24:54;;;;;;;2.45;1.50;;;11.20;84.40;;;;;;4999811;28;20405;-81
2022/08/24 09:27:40;;;;;;;1.60;1.30;;;11.20;86.10;;;;;;5006310;28;20369;-80
2022/08/24 09:30:26;;;;;;;2.65;1.15;;;11.10;87.60;;;;;;5000838;28;20377;-77
2022/08/24 09:33:08;;;;;;;1.95;1.00;;;11.00;89.50;;;;;;5012457;28;20860;-78
2022/08/24 09:35:50;;;;;;;1.97;1.10;;;10.90;90.70;;;;;;5003701;28;20416;-77
2022/08/24 09:38:46;;;;;;;1.90;1.30;;;10.90;91.10;;;;;;4997384;28;20384;-80
2022/08/24 09:41:50;;;;;;;2.33;1.20;;;10.90;91.30;;;;;;4992286;28;20396;-77
2022/08/24 09:44:35;;;;;;;4.72;1.10;;;10.90;91.00;;;;;;4992468;28;20852;-85
2022/08/24 09:47:38;;;;;;;5.00;1.00;;;10.90;91.30;;;;;;4986432;28;20399;-79
2022/08/24 09:50:42;;;;;;;3.72;0.90;;;10.90;91.90;;;;;;4973248;28;20435;-78
2022/08/24 09:53:35;;;;;;;3.28;0.85;;;10.90;92.20;;;;;;4987875;28;20389;-79
2022/08/24 09:56:19;;;;;;;2.35;0.73;;;10.80;92.60;;;;;;4991371;28;20508;-78
2022/08/24 09:58:58;;;;;;;2.05;0.90;;;10.70;92.90;;;;;;4991740;28;20377;-78
2022/08/24 10:01:25;;;;;;;2.85;0.77;;;10.60;93.60;;;;;;4990914;28;20752;-79
2022/08/24 10:04:41;;;;;;;4.30;0.95;;;10.50;94.30;;;;;;4991399;28;20373;-79
2022/08/24 10:07:11;;;;;;;4.95;2.20;;;10.50;94.80;;;;;;4892127;29;20406;-79
2022/08/24 10:10:12;;;;;;;4.53;1.80;;;10.50;95.30;;;;;;4894895;29;20403;-77
2022/08/24 10:12:50;;;;;;;2.93;1.93;;;10.40;96.20;;;;;;4894149;29;20828;-78
2022/08/24 10:15:57;;;;;;;3.53;1.80;;;10.40;96.50;;;;;;4884640;29;20422;-78
2022/08/24 10:18:45;;;;;;;3.97;1.30;;;10.30;97.10;;;;;;4897516;29;20393;-78
2022/08/24 10:21:40;;;;;;;3.00;1.20;;;10.30;97.50;;;;;;4893132;29;20405;-78
2022/08/24 10:24:33;;;;;;;2.17;1.10;;;10.30;98.10;;;;;;4856949;29;20929;-78
2022/08/24 10:27:24;;;;;;;3.10;1.20;;;10.30;98.20;;;;;;4863837;29;20402;-79
2022/08/24 10:30:27;;;;;;;5.10;0.90;;;10.20;98.80;;;;;;4857284;29;20400;-79
2022/08/24 10:33:21;;;;;;;2.03;0.90;;;10.10;99.10;;;;;;4860161;29;20443;-78
2022/08/24 10:36:38;;;;;;;3.33;1.63;;;10.10;99.10;;;;;;4862167;29;20431;-78
2022/08/24 10:39:42;;;;;;;3.63;1.48;;;10.00;99.50;;;;;;4849026;29;20509;-77
2022/08/24 10:46:08;;;;;;;6.18;1.83;;;9.90;99.90;;;;;;4876098;29;20420;-78
2022/08/24 10:49:03;;;;;;;6.25;2.60;;;9.70;99.90;;;;;;4875314;29;20414;-78
2022/08/24 10:51:50;;;;;;;3.13;1.27;;;9.70;99.90;;;;;;4875419;29;20403;-78
2022/08/24 10:54:19;;;;;;;2.60;1.00;;;9.60;99.90;;;;;;4885824;29;20407;-80
2022/08/24 10:57:18;;;;;;;2.13;1.00;;;9.50;99.90;;;;;;4951381;29;20910;-80
2022/08/24 11:00:00;;;;;;;3.33;0.90;;;9.50;99.90;;;;;;4954298;29;20480;-79
2022/08/24 11:02:39;;;;;;;4.10;1.50;;;9.40;99.90;;;;;;4953604;29;20483;-78
2022/08/24 11:05:13;;;;;;;3.30;1.30;;;9.30;99.90;;;;;;4955056;29;20443;-79
2022/08/24 11:08:32;;;;;;;2.55;0.90;;;9.30;99.90;;;;;;4953302;29;20945;-79
2022/08/24 11:11:12;;;;;;;4.10;1.17;;;9.20;99.90;;;;;;4912350;29;20395;-79
2022/08/24 11:13:59;;;;;;;2.42;1.02;;;9.20;99.90;;;;;;4910728;29;20411;-78
2022/08/24 11:16:39;;;;;;;1.85;0.90;;;9.10;99.90;;;;;;4912534;29;20918;-79
2022/08/24 11:19:29;;;;;;;3.22;1.08;;;9.00;99.90;;;;;;4921717;29;21180;-80
2022/08/24 11:22:05;;;;;;;4.20;1.20;;;9.00;99.90;;;;;;4952242;29;20380;-80
2022/08/24 11:24:45;;;;;;;3.25;1.15;;;8.90;99.90;;;;;;4941062;29;21206;-80
2022/08/24 11:27:34;;;;;;;2.90;1.10;;;8.80;99.90;;;;;;4942326;29;20391;-80
2022/08/24 11:30:12;;;;;;;3.50;1.20;;;8.70;99.90;;;;;;4954906;29;20487;-80
2022/08/24 11:33:02;;;;;;;2.22;0.90;;;8.50;99.90;;;;;;4946760;29;20392;-80
2022/08/24 11:35:35;;;;;;;2.13;0.90;;;8.50;99.90;;;;;;4950494;29;20412;-80
2022/08/24 11:38:18;;;;;;;2.50;0.95;;;8.40;99.90;;;;;;4941309;29;20569;-80
2022/08/24 11:40:58;;;;;;;2.50;0.90;;;8.40;99.90;;;;;;4953563;29;20384;-77
2022/08/24 11:44:02;;;;;;;3.67;1.42;;;8.30;99.90;;;;;;4952125;29;20462;-76
2022/08/24 11:46:36;;;;;;;44.03;37.78;;;8.20;99.90;;;;;;4977839;28;20395;-78
2022/08/24 11:49:21;;;;;;;26.88;21.50;;;8.20;99.90;;;;;;4994638;28;20412;-78
2022/08/24 11:51:57;;;;;;;4.22;1.40;;;8.20;99.90;;;;;;4993911;28;20795;-77
2022/08/24 11:54:37;;;;;;;2.80;1.30;;;8.20;99.90;;;;;;4994854;28;20745;-78
2022/08/24 11:57:29;;;;;;;4.78;1.15;;;8.20;99.90;;;;;;4994220;28;20423;-77
2022/08/24 12:00:14;;;;;;;4.60;1.40;;;8.10;99.90;;;;;;4996075;28;20373;-79
2022/08/24 12:03:05;;;;;;;3.03;1.35;;;8.10;99.90;;;;;;4994937;28;20408;-78
2022/08/24 12:05:50;;;;;;;3.53;1.30;;;8.20;99.90;;;;;;4993658;28;20392;-81
2022/08/24 12:08:44;;;;;;;4.07;1.50;;;8.20;99.90;;;;;;4994132;28;20481;-78
2022/08/24 12:11:35;;;;;;;4.63;1.20;;;8.20;99.90;;;;;;4984609;28;20873;-79
2022/08/24 12:14:31;;;;;;;4.28;1.08;;;8.10;99.90;;;;;;4994027;28;20408;-77
2022/08/24 12:17:11;;;;;;;3.67;1.30;;;8.10;99.90;;;;;;4994076;28;20463;-79
2022/08/24 12:19:52;;;;;;;4.50;1.40;;;8.00;99.90;;;;;;4976238;28;20528;-77
2022/08/24 12:22:21;;;;;;;4.32;1.10;;;8.00;99.90;;;;;;4994588;28;20373;-79
2022/08/24 12:24:58;;;;;;;4.57;1.60;;;8.00;99.90;;;;;;4993680;28;20385;-78
2022/08/24 12:27:37;;;;;;;4.45;2.30;;;7.90;99.90;;;;;;4994110;28;20392;-78
2022/08/24 12:30:13;;;;;;;13.05;6.18;;;7.90;99.90;;;;;;4993881;28;20378;-79
2022/08/24 12:32:49;;;;;;;12.75;6.40;;;7.90;99.90;;;;;;4959755;28;20404;-78
2022/08/24 12:35:34;;;;;;;9.93;5.88;;;7.80;99.90;;;;;;4992203;28;20852;-79
2022/08/24 12:38:16;;;;;;;10.50;5.50;;;7.80;99.90;;;;;;4993908;28;20468;-79
2022/08/24 12:40:55;;;;;;;8.70;4.50;;;7.80;99.90;;;;;;4993643;28;20373;-79
2022/08/24 12:43:31;;;;;;;7.93;3.50;;;7.80;99.90;;;;;;4993691;28;20393;-78
2022/08/24 12:46:23;;;;;;;8.32;4.75;;;7.70;99.90;;;;;;4993189;28;20384;-80
2022/08/24 12:49:04;;;;;;;9.77;5.35;;;7.60;99.90;;;;;;4993967;28;20385;-80
2022/08/24 12:51:58;;;;;;;8.13;3.67;;;7.50;99.90;;;;;;4993721;28;20919;-80
2022/08/24 12:55:15;;;;;;;3.80;2.00;;;7.50;99.90;;;;;;4952474;29;20440;-79
2022/08/24 12:57:45;;;;;;;4.00;1.93;;;7.40;99.90;;;;;;4896966;29;20386;-80
2022/08/24 13:00:23;;;;;;;5.63;2.00;;;7.50;99.90;;;;;;4895117;29;20408;-80
2022/08/24 13:03:24;;;;;;;4.65;2.10;;;7.40;99.90;;;;;;4893802;29;20405;-79
2022/08/24 13:05:56;;;;;;;4.63;2.53;;;7.40;99.90;;;;;;4894741;29;20840;-80
2022/08/24 13:08:45;;;;;;;4.78;2.60;;;7.30;99.90;;;;;;4885327;29;20816;-80
2022/08/24 13:11:27;;;;;;;4.07;2.50;;;7.20;99.90;;;;;;4888708;29;20437;-78
2022/08/24 13:14:22;;;;;;;5.18;2.95;;;7.20;99.90;;;;;;4894588;29;20385;-78
2022/08/24 13:16:57;;;;;;;7.10;4.80;;;7.10;99.90;;;;;;4894010;29;20442;-80
2022/08/24 13:19:27;;;;;;;8.10;5.82;;;7.00;99.90;;;;;;4892518;29;20436;-81
2022/08/24 13:22:09;;;;;;;7.25;5.10;;;7.00;99.90;;;;;;4894460;29;20393;-80
2022/08/24 13:24:37;;;;;;;9.55;4.93;;;6.90;99.90;;;;;;4894726;29;20485;-79
2022/08/24 13:27:14;;;;;;;7.45;4.20;;;6.90;99.90;;;;;;4894713;29;20884;-80
2022/08/24 13:29:49;;;;;;;6.32;3.70;;;6.90;99.90;;;;;;4891934;29;20397;-78
2022/08/24 13:32:37;;;;;;;7.75;4.68;;;6.90;99.90;;;;;;4905283;29;20493;-79
2022/08/24 13:35:36;;;;;;;9.07;4.35;;;6.90;99.90;;;;;;4967174;28;20400;-79
2022/08/24 13:38:49;;;;;;;9.07;5.57;;;6.90;99.90;;;;;;4991380;28;20880;-79
2022/08/24 13:41:32;;;;;;;8.63;3.72;;;6.90;99.90;;;;;;4930820;29;20476;-78